createdAt,value
2017-06-15T00:00:17.178Z,19.91
2017-06-15T00:00:43.285Z,19.77
2017-06-15T00:01:09.379Z,19.69
2017-06-15T00:01:35.486Z,19.69
2017-06-15T00:02:01.574Z,19.7
2017-06-15T00:02:27.676Z,19.69
2017-06-15T00:02:53.782Z,19.64
2017-06-15T00:03:19.901Z,19.64
2017-06-15T00:03:45.999Z,19.64
2017-06-15T00:04:12.138Z,19.63
2017-06-15T00:04:38.231Z,19.7
2017-06-15T00:05:04.347Z,19.59
2017-06-15T00:05:30.459Z,19.63
2017-06-15T00:05:56.556Z,19.62
2017-06-15T00:06:22.644Z,19.55
2017-06-15T00:06:48.751Z,19.56
2017-06-15T00:07:14.852Z,19.59
2017-06-15T00:07:40.944Z,19.54
2017-06-15T00:08:07.047Z,19.55
2017-06-15T00:08:33.152Z,19.49
2017-06-15T00:08:59.238Z,19.49
2017-06-15T00:09:25.337Z,19.48
2017-06-15T00:09:51.471Z,19.52
2017-06-15T00:10:17.562Z,19.48
2017-06-15T00:10:43.713Z,19.45
2017-06-15T00:11:09.842Z,19.31
2017-06-15T00:11:35.962Z,19.39
2017-06-15T00:12:02.053Z,19.31
2017-06-15T00:12:28.199Z,19.34
2017-06-15T00:12:54.311Z,19.27
2017-06-15T00:13:20.442Z,19.29
2017-06-15T00:13:46.532Z,19.24
2017-06-15T00:14:12.631Z,19.27
2017-06-15T00:14:38.766Z,19.27
2017-06-15T00:15:04.888Z,19.27
2017-06-15T00:15:30.980Z,19.22
2017-06-15T00:15:57.116Z,19.22
2017-06-15T00:16:23.242Z,19.19
2017-06-15T00:16:49.333Z,19.22
2017-06-15T00:17:15.465Z,19.16
2017-06-15T00:17:41.565Z,19.11
2017-06-15T00:18:07.665Z,19.22
2017-06-15T00:18:33.756Z,19.16
2017-06-15T00:18:59.868Z,19.12
2017-06-15T00:19:26.006Z,19.24
2017-06-15T00:19:52.156Z,19.14
2017-06-15T00:20:18.248Z,19.3
2017-06-15T00:20:44.354Z,19.22
2017-06-15T00:21:10.455Z,19.22
2017-06-15T00:21:36.598Z,19.18
2017-06-15T00:22:02.731Z,19.16
2017-06-15T00:22:28.837Z,19.24
2017-06-15T00:22:54.977Z,19.11
2017-06-15T00:23:21.099Z,19.04
2017-06-15T00:23:47.191Z,19.12
2017-06-15T00:24:13.298Z,19.07
2017-06-15T00:24:39.395Z,19.12
2017-06-15T00:25:05.483Z,19.22
2017-06-15T00:25:31.610Z,19.22
2017-06-15T00:25:57.718Z,19.22
2017-06-15T00:26:23.831Z,19.21
2017-06-15T00:26:49.931Z,19.14
2017-06-15T00:27:16.036Z,19.15
2017-06-15T00:27:42.158Z,19.19
2017-06-15T00:28:08.300Z,19.16
2017-06-15T00:28:34.407Z,19.12
2017-06-15T00:29:00.500Z,19.09
2017-06-15T00:29:26.607Z,19.15
2017-06-15T00:29:52.695Z,19.21
2017-06-15T00:30:18.821Z,19.21
2017-06-15T00:30:44.928Z,19.15
2017-06-15T00:31:11.020Z,19.24
2017-06-15T00:31:37.116Z,19.14
2017-06-15T00:32:03.223Z,19.11
2017-06-15T00:32:29.342Z,19.14
2017-06-15T00:32:55.433Z,19.18
2017-06-15T00:33:21.598Z,19.08
2017-06-15T00:33:47.747Z,19.09
2017-06-15T00:34:13.910Z,19.07
2017-06-15T00:34:40.017Z,19.12
2017-06-15T00:35:06.113Z,19.08
2017-06-15T00:35:32.221Z,19.09
2017-06-15T00:35:58.342Z,19.08
2017-06-15T00:36:24.433Z,19.08
2017-06-15T00:36:50.543Z,19.08
2017-06-15T00:37:16.668Z,19.09
2017-06-15T00:37:42.757Z,19.14
2017-06-15T00:38:08.864Z,19.08
2017-06-15T00:38:34.992Z,19.08
2017-06-15T00:39:01.106Z,19.11
2017-06-15T00:39:27.209Z,19.08
2017-06-15T00:39:53.319Z,19.11
2017-06-15T00:40:19.413Z,19.09
2017-06-15T00:40:45.512Z,19.08
2017-06-15T00:41:11.605Z,19.14
2017-06-15T00:41:37.712Z,18.96
2017-06-15T00:42:03.840Z,19
2017-06-15T00:42:29.932Z,19
2017-06-15T00:42:56.035Z,19.08
2017-06-15T00:43:22.140Z,18.93
2017-06-15T00:43:48.229Z,19.07
2017-06-15T00:44:14.329Z,19.08
2017-06-15T00:44:40.465Z,19.09
2017-06-15T00:45:06.580Z,19.07
2017-06-15T00:45:32.682Z,19.04
2017-06-15T00:45:58.779Z,19.04
2017-06-15T00:46:24.883Z,19.09
2017-06-15T00:46:50.989Z,19.07
2017-06-15T00:47:17.074Z,19.08
2017-06-15T00:47:43.223Z,19.02
2017-06-15T00:48:09.329Z,19
2017-06-15T00:48:35.433Z,19.04
2017-06-15T00:49:01.568Z,19.07
2017-06-15T00:49:27.700Z,19.07
2017-06-15T00:49:53.793Z,19
2017-06-15T00:50:19.910Z,18.98
2017-06-15T00:50:46.047Z,18.9
2017-06-15T00:51:12.197Z,18.88
2017-06-15T00:51:38.286Z,18.98
2017-06-15T00:52:04.395Z,18.9
2017-06-15T00:52:30.522Z,18.89
2017-06-15T00:52:56.638Z,18.84
2017-06-15T00:53:22.744Z,18.86
2017-06-15T00:53:48.878Z,18.89
2017-06-15T00:54:14.965Z,18.81
2017-06-15T00:54:41.066Z,18.83
2017-06-15T00:55:07.199Z,18.95
2017-06-15T00:55:33.315Z,18.93
2017-06-15T00:55:59.414Z,18.83
2017-06-15T00:56:25.521Z,18.88
2017-06-15T00:56:51.668Z,18.84
2017-06-15T00:57:17.828Z,18.84
2017-06-15T00:57:43.914Z,18.86
2017-06-15T00:58:10.014Z,18.84
2017-06-15T00:58:36.119Z,18.88
2017-06-15T00:59:02.232Z,18.88
2017-06-15T00:59:28.353Z,18.89
2017-06-15T00:59:54.460Z,18.86
2017-06-15T01:00:20.581Z,18.84
2017-06-15T01:00:46.670Z,18.83
2017-06-15T01:01:12.780Z,18.8
2017-06-15T01:01:38.905Z,18.9
2017-06-15T01:02:05.020Z,18.86
2017-06-15T01:02:31.156Z,18.83
2017-06-15T01:02:57.250Z,18.84
2017-06-15T01:03:23.411Z,18.78
2017-06-15T01:03:49.502Z,18.81
2017-06-15T01:04:15.617Z,18.75
2017-06-15T01:04:41.727Z,18.74
2017-06-15T01:05:07.851Z,18.71
2017-06-15T01:05:33.943Z,18.74
2017-06-15T01:06:00.075Z,18.71
2017-06-15T01:06:26.232Z,18.74
2017-06-15T01:06:52.344Z,18.81
2017-06-15T01:07:18.448Z,18.68
2017-06-15T01:07:44.553Z,18.81
2017-06-15T01:08:10.672Z,18.75
2017-06-15T01:08:36.769Z,18.74
2017-06-15T01:09:02.906Z,18.74
2017-06-15T01:09:29.011Z,18.74
2017-06-15T01:09:55.166Z,18.73
2017-06-15T01:10:21.330Z,18.77
2017-06-15T01:10:47.433Z,18.81
2017-06-15T01:11:13.536Z,18.73
2017-06-15T01:11:39.622Z,18.77
2017-06-15T01:12:05.722Z,18.71
2017-06-15T01:12:31.830Z,18.75
2017-06-15T01:12:57.921Z,18.71
2017-06-15T01:13:24.017Z,18.77
2017-06-15T01:13:50.115Z,18.65
2017-06-15T01:14:16.218Z,18.78
2017-06-15T01:14:42.325Z,18.73
2017-06-15T01:15:08.437Z,18.68
2017-06-15T01:15:34.536Z,18.77
2017-06-15T01:16:00.670Z,18.71
2017-06-15T01:16:26.762Z,18.71
2017-06-15T01:16:52.883Z,18.68
2017-06-15T01:17:18.996Z,18.68
2017-06-15T01:17:45.090Z,18.63
2017-06-15T01:18:11.182Z,18.62
2017-06-15T01:18:37.314Z,18.53
2017-06-15T01:19:03.465Z,18.65
2017-06-15T01:19:29.568Z,18.7
2017-06-15T01:19:55.659Z,18.63
2017-06-15T01:20:21.756Z,18.8
2017-06-15T01:20:47.863Z,18.65
2017-06-15T01:21:13.958Z,18.78
2017-06-15T01:21:40.048Z,18.74
2017-06-15T01:22:06.158Z,18.77
2017-06-15T01:22:32.285Z,18.81
2017-06-15T01:22:58.401Z,18.78
2017-06-15T01:23:24.556Z,18.77
2017-06-15T01:23:50.656Z,18.86
2017-06-15T01:24:16.748Z,18.78
2017-06-15T01:24:42.877Z,18.83
2017-06-15T01:25:08.968Z,18.78
2017-06-15T01:25:35.076Z,18.83
2017-06-15T01:26:01.172Z,18.8
2017-06-15T01:26:27.263Z,18.8
2017-06-15T01:26:53.393Z,18.83
2017-06-15T01:27:19.493Z,18.86
2017-06-15T01:27:45.585Z,18.89
2017-06-15T01:28:11.687Z,18.86
2017-06-15T01:28:37.794Z,19
2017-06-15T01:29:03.905Z,19.04
2017-06-15T01:29:30.005Z,19.11
2017-06-15T01:29:56.111Z,19.08
2017-06-15T01:30:22.230Z,19.11
2017-06-15T01:30:48.385Z,19.09
2017-06-15T01:31:14.475Z,19.08
2017-06-15T01:31:40.579Z,19.11
2017-06-15T01:32:06.714Z,19.09
2017-06-15T01:32:32.829Z,19
2017-06-15T01:32:58.930Z,18.99
2017-06-15T01:33:25.037Z,19.02
2017-06-15T01:33:51.128Z,19.07
2017-06-15T01:34:17.251Z,19.07
2017-06-15T01:34:43.357Z,19.08
2017-06-15T01:35:09.479Z,19.12
2017-06-15T01:35:35.571Z,19.11
2017-06-15T01:36:01.679Z,19.14
2017-06-15T01:36:27.778Z,19.14
2017-06-15T01:36:53.868Z,19.09
2017-06-15T01:37:20.001Z,19.08
2017-06-15T01:37:46.098Z,19.07
2017-06-15T01:38:12.189Z,19.07
2017-06-15T01:38:38.319Z,19.08
2017-06-15T01:39:04.426Z,19.14
2017-06-15T01:39:30.514Z,19.09
2017-06-15T01:39:56.665Z,19.08
2017-06-15T01:40:22.773Z,19.16
2017-06-15T01:40:48.861Z,19.14
2017-06-15T01:41:14.982Z,19.12
2017-06-15T01:41:41.079Z,19.24
2017-06-15T01:42:07.182Z,19.29
2017-06-15T01:42:33.318Z,19.24
2017-06-15T01:42:59.407Z,19.27
2017-06-15T01:43:25.529Z,19.34
2017-06-15T01:43:51.637Z,19.33
2017-06-15T01:44:17.750Z,19.3
2017-06-15T01:44:43.849Z,19.26
2017-06-15T01:45:09.955Z,19.15
2017-06-15T01:45:36.058Z,19.15
2017-06-15T01:46:02.166Z,19.27
2017-06-15T01:46:28.296Z,19.22
2017-06-15T01:46:54.395Z,19.22
2017-06-15T01:47:20.499Z,19.22
2017-06-15T01:47:46.590Z,19.24
2017-06-15T01:48:12.687Z,19.24
2017-06-15T01:48:38.822Z,19.27
2017-06-15T01:49:04.916Z,19.31
2017-06-15T01:49:31.005Z,19.34
2017-06-15T01:49:57.141Z,19.3
2017-06-15T01:50:23.265Z,19.34
2017-06-15T01:50:49.380Z,19.33
2017-06-15T01:51:15.487Z,19.34
2017-06-15T01:51:41.586Z,19.31
2017-06-15T01:52:07.677Z,19.34
2017-06-15T01:52:33.803Z,19.27
2017-06-15T01:52:59.894Z,19.22
2017-06-15T01:53:26.002Z,19.09
2017-06-15T01:53:52.101Z,19.09
2017-06-15T01:54:18.194Z,19.08
2017-06-15T01:54:44.324Z,19.04
2017-06-15T01:55:10.453Z,19.07
2017-06-15T01:55:36.546Z,18.99
2017-06-15T01:56:02.650Z,18.95
2017-06-15T01:56:28.785Z,18.83
2017-06-15T01:56:54.873Z,18.83
2017-06-15T01:57:20.974Z,18.84
2017-06-15T01:57:47.110Z,18.81
2017-06-15T01:58:13.202Z,18.8
2017-06-15T01:58:39.324Z,18.78
2017-06-15T01:59:05.444Z,18.78
2017-06-15T01:59:31.564Z,18.75
2017-06-15T01:59:57.681Z,18.78
2017-06-15T02:00:23.790Z,18.78
2017-06-15T02:00:49.917Z,18.84
2017-06-15T02:01:16.006Z,18.89
2017-06-15T02:01:42.140Z,18.9
2017-06-15T02:02:08.241Z,18.86
2017-06-15T02:02:34.332Z,18.83
2017-06-15T02:03:00.435Z,18.84
2017-06-15T02:03:26.541Z,18.83
2017-06-15T02:03:52.659Z,18.88
2017-06-15T02:04:18.781Z,18.7
2017-06-15T02:04:44.871Z,18.75
2017-06-15T02:05:11.007Z,18.77
2017-06-15T02:05:37.109Z,18.7
2017-06-15T02:06:03.221Z,18.65
2017-06-15T02:06:29.326Z,18.65
2017-06-15T02:06:55.458Z,18.6
2017-06-15T02:07:21.545Z,18.6
2017-06-15T02:07:47.672Z,18.63
2017-06-15T02:08:13.779Z,18.7
2017-06-15T02:08:39.871Z,18.56
2017-06-15T02:09:05.967Z,18.68
2017-06-15T02:09:32.063Z,18.65
2017-06-15T02:09:58.167Z,18.56
2017-06-15T02:10:24.273Z,18.52
2017-06-15T02:10:50.362Z,18.5
2017-06-15T02:11:16.463Z,18.56
2017-06-15T02:11:42.623Z,18.49
2017-06-15T02:12:08.715Z,18.53
2017-06-15T02:12:34.835Z,18.49
2017-06-15T02:13:00.942Z,18.47
2017-06-15T02:13:27.066Z,18.45
2017-06-15T02:13:53.181Z,18.53
2017-06-15T02:14:19.295Z,18.52
2017-06-15T02:14:45.416Z,18.53
2017-06-15T02:15:11.546Z,18.49
2017-06-15T02:15:37.637Z,18.52
2017-06-15T02:16:03.782Z,18.62
2017-06-15T02:16:29.917Z,18.6
2017-06-15T02:16:56.037Z,18.6
2017-06-15T02:17:22.505Z,18.5
2017-06-15T02:17:48.612Z,18.55
2017-06-15T02:18:14.709Z,18.62
2017-06-15T02:18:40.801Z,18.73
2017-06-15T02:19:06.907Z,18.7
2017-06-15T02:19:33.006Z,18.75
2017-06-15T02:19:59.121Z,18.81
2017-06-15T02:20:25.247Z,18.75
2017-06-15T02:20:51.383Z,18.7
2017-06-15T02:21:17.494Z,18.78
2017-06-15T02:21:43.595Z,18.66
2017-06-15T02:22:09.752Z,18.6
2017-06-15T02:22:35.868Z,18.68
2017-06-15T02:23:02.061Z,18.6
2017-06-15T02:23:28.167Z,18.59
2017-06-15T02:23:54.260Z,18.63
2017-06-15T02:24:20.375Z,18.52
2017-06-15T02:24:46.485Z,18.49
2017-06-15T02:25:12.611Z,18.55
2017-06-15T02:25:38.699Z,18.55
2017-06-15T02:26:04.806Z,18.53
2017-06-15T02:26:30.898Z,18.59
2017-06-15T02:26:57.004Z,18.52
2017-06-15T02:27:23.097Z,18.6
2017-06-15T02:27:49.186Z,18.59
2017-06-15T02:28:15.296Z,18.56
2017-06-15T02:28:41.393Z,18.49
2017-06-15T02:29:07.484Z,18.55
2017-06-15T02:29:33.648Z,18.56
2017-06-15T02:29:59.754Z,18.56
2017-06-15T02:30:25.868Z,18.5
2017-06-15T02:30:51.972Z,18.5
2017-06-15T02:31:18.079Z,18.52
2017-06-15T02:31:44.199Z,18.5
2017-06-15T02:32:10.304Z,18.49
2017-06-15T02:32:36.395Z,18.55
2017-06-15T02:33:02.525Z,18.53
2017-06-15T02:33:28.622Z,18.63
2017-06-15T02:33:54.736Z,18.56
2017-06-15T02:34:20.839Z,18.6
2017-06-15T02:34:46.976Z,18.62
2017-06-15T02:35:13.084Z,18.65
2017-06-15T02:35:39.182Z,18.68
2017-06-15T02:36:05.314Z,18.66
2017-06-15T02:36:31.405Z,18.66
2017-06-15T02:36:57.502Z,18.71
2017-06-15T02:37:23.625Z,18.52
2017-06-15T02:37:49.728Z,18.59
2017-06-15T02:38:15.835Z,18.6
2017-06-15T02:38:41.922Z,18.7
2017-06-15T02:39:08.070Z,18.71
2017-06-15T02:39:34.202Z,18.7
2017-06-15T02:40:00.295Z,18.78
2017-06-15T02:40:26.416Z,18.77
2017-06-15T02:40:52.549Z,18.71
2017-06-15T02:41:18.642Z,18.78
2017-06-15T02:41:44.731Z,18.78
2017-06-15T02:42:10.841Z,18.71
2017-06-15T02:42:36.938Z,18.77
2017-06-15T02:43:03.040Z,18.7
2017-06-15T02:43:29.153Z,18.78
2017-06-15T02:43:55.300Z,18.78
2017-06-15T02:44:21.405Z,18.83
2017-06-15T02:44:47.499Z,18.78
2017-06-15T02:45:13.639Z,18.73
2017-06-15T02:45:39.775Z,18.81
2017-06-15T02:46:05.871Z,18.7
2017-06-15T02:46:31.961Z,18.73
2017-06-15T02:46:58.066Z,18.71
2017-06-15T02:47:24.167Z,18.78
2017-06-15T02:47:50.258Z,18.83
2017-06-15T02:48:16.362Z,18.83
2017-06-15T02:48:42.479Z,18.78
2017-06-15T02:49:08.588Z,18.83
2017-06-15T02:49:34.684Z,18.86
2017-06-15T02:50:00.775Z,18.86
2017-06-15T02:50:26.881Z,18.8
2017-06-15T02:50:52.979Z,18.75
2017-06-15T02:51:19.125Z,18.8
2017-06-15T02:51:45.226Z,18.78
2017-06-15T02:52:11.332Z,18.83
2017-06-15T02:52:37.419Z,18.81
2017-06-15T02:53:03.519Z,18.8
2017-06-15T02:53:29.625Z,18.83
2017-06-15T02:53:55.715Z,18.88
2017-06-15T02:54:21.817Z,18.89
2017-06-15T02:54:47.908Z,18.86
2017-06-15T02:55:14.011Z,18.83
2017-06-15T02:55:40.119Z,18.83
2017-06-15T02:56:06.205Z,18.78
2017-06-15T02:56:32.304Z,18.81
2017-06-15T02:56:58.409Z,18.8
2017-06-15T02:57:24.549Z,18.75
2017-06-15T02:57:50.672Z,18.78
2017-06-15T02:58:16.808Z,18.86
2017-06-15T02:58:42.928Z,18.8
2017-06-15T02:59:09.018Z,18.74
2017-06-15T02:59:35.119Z,18.73
2017-06-15T03:00:01.241Z,18.78
2017-06-15T03:00:27.348Z,18.81
2017-06-15T03:00:53.438Z,18.73
2017-06-15T03:01:19.533Z,18.73
2017-06-15T03:01:45.639Z,18.71
2017-06-15T03:02:11.761Z,18.68
2017-06-15T03:02:37.873Z,18.77
2017-06-15T03:03:04.006Z,18.68
2017-06-15T03:03:30.102Z,18.71
2017-06-15T03:03:56.193Z,18.66
2017-06-15T03:04:22.352Z,18.73
2017-06-15T03:04:48.452Z,18.7
2017-06-15T03:05:14.541Z,18.7
2017-06-15T03:05:40.644Z,18.68
2017-06-15T03:06:06.750Z,18.71
2017-06-15T03:06:32.839Z,18.75
2017-06-15T03:06:58.947Z,18.66
2017-06-15T03:07:25.072Z,18.75
2017-06-15T03:07:51.162Z,18.68
2017-06-15T03:08:17.308Z,18.77
2017-06-15T03:08:43.441Z,18.7
2017-06-15T03:09:09.537Z,18.73
2017-06-15T03:09:35.651Z,18.77
2017-06-15T03:10:01.786Z,18.75
2017-06-15T03:10:27.881Z,18.73
2017-06-15T03:10:53.985Z,18.73
2017-06-15T03:11:20.099Z,18.73
2017-06-15T03:11:46.195Z,18.7
2017-06-15T03:12:12.302Z,18.78
2017-06-15T03:12:38.422Z,18.73
2017-06-15T03:13:04.514Z,18.78
2017-06-15T03:13:30.624Z,18.81
2017-06-15T03:13:56.719Z,18.71
2017-06-15T03:14:22.813Z,18.74
2017-06-15T03:14:48.965Z,18.77
2017-06-15T03:15:15.065Z,18.77
2017-06-15T03:15:41.180Z,18.81
2017-06-15T03:16:07.282Z,18.7
2017-06-15T03:16:33.373Z,18.75
2017-06-15T03:16:59.479Z,18.7
2017-06-15T03:17:25.576Z,18.68
2017-06-15T03:17:51.989Z,18.7
2017-06-15T03:18:18.145Z,18.65
2017-06-15T03:18:44.272Z,18.73
2017-06-15T03:19:10.386Z,18.8
2017-06-15T03:19:36.489Z,18.77
2017-06-15T03:20:02.595Z,18.8
2017-06-15T03:20:28.706Z,18.74
2017-06-15T03:20:54.783Z,18.77
2017-06-15T03:21:20.917Z,18.75
2017-06-15T03:21:47.009Z,18.73
2017-06-15T03:22:13.112Z,18.68
2017-06-15T03:22:39.200Z,18.73
2017-06-15T03:23:05.305Z,18.75
2017-06-15T03:23:31.409Z,18.71
2017-06-15T03:23:57.496Z,18.75
2017-06-15T03:24:23.597Z,18.78
2017-06-15T03:24:49.704Z,18.75
2017-06-15T03:25:15.792Z,18.77
2017-06-15T03:25:41.913Z,18.74
2017-06-15T03:26:08.018Z,18.81
2017-06-15T03:26:34.113Z,18.73
2017-06-15T03:27:00.203Z,18.71
2017-06-15T03:27:26.305Z,18.77
2017-06-15T03:27:52.402Z,18.8
2017-06-15T03:28:18.509Z,18.78
2017-06-15T03:28:44.653Z,18.78
2017-06-15T03:29:10.750Z,18.78
2017-06-15T03:29:36.856Z,18.71
2017-06-15T03:30:02.957Z,18.77
2017-06-15T03:30:29.067Z,18.78
2017-06-15T03:30:55.173Z,18.71
2017-06-15T03:31:21.270Z,18.8
2017-06-15T03:31:47.361Z,18.7
2017-06-15T03:32:13.467Z,18.71
2017-06-15T03:32:39.566Z,18.77
2017-06-15T03:33:05.666Z,18.75
2017-06-15T03:33:31.760Z,18.71
2017-06-15T03:33:57.849Z,18.74
2017-06-15T03:34:23.987Z,18.77
2017-06-15T03:34:50.085Z,18.74
2017-06-15T03:35:16.174Z,18.73
2017-06-15T03:35:42.280Z,18.73
2017-06-15T03:36:08.380Z,18.74
2017-06-15T03:36:34.493Z,18.73
2017-06-15T03:37:00.596Z,18.77
2017-06-15T03:37:26.703Z,18.74
2017-06-15T03:37:52.816Z,18.75
2017-06-15T03:38:18.917Z,18.71
2017-06-15T03:38:45.035Z,18.77
2017-06-15T03:39:11.141Z,18.8
2017-06-15T03:39:37.239Z,18.7
2017-06-15T03:40:03.330Z,18.71
2017-06-15T03:40:29.461Z,18.63
2017-06-15T03:40:55.568Z,18.6
2017-06-15T03:41:21.657Z,18.6
2017-06-15T03:41:47.758Z,18.65
2017-06-15T03:42:13.892Z,18.68
2017-06-15T03:42:39.983Z,18.68
2017-06-15T03:43:06.079Z,18.68
2017-06-15T03:43:32.186Z,18.65
2017-06-15T03:43:58.303Z,18.78
2017-06-15T03:44:24.440Z,18.75
2017-06-15T03:44:50.521Z,18.71
2017-06-15T03:45:16.622Z,18.8
2017-06-15T03:45:42.728Z,18.74
2017-06-15T03:46:08.819Z,18.68
2017-06-15T03:46:34.916Z,18.74
2017-06-15T03:47:01.022Z,18.75
2017-06-15T03:47:27.141Z,18.86
2017-06-15T03:47:53.265Z,18.78
2017-06-15T03:48:19.369Z,18.71
2017-06-15T03:48:45.466Z,18.73
2017-06-15T03:49:11.582Z,18.74
2017-06-15T03:49:37.689Z,18.77
2017-06-15T03:50:03.848Z,18.7
2017-06-15T03:50:29.935Z,18.7
2017-06-15T03:50:56.039Z,18.75
2017-06-15T03:51:22.144Z,18.81
2017-06-15T03:51:48.233Z,18.81
2017-06-15T03:52:14.363Z,18.81
2017-06-15T03:52:40.467Z,18.8
2017-06-15T03:53:06.582Z,18.83
2017-06-15T03:53:32.705Z,18.89
2017-06-15T03:53:58.811Z,18.93
2017-06-15T03:54:24.905Z,18.83
2017-06-15T03:54:50.995Z,18.88
2017-06-15T03:55:17.152Z,18.86
2017-06-15T03:55:43.251Z,18.92
2017-06-15T03:56:09.358Z,18.83
2017-06-15T03:56:35.450Z,18.84
2017-06-15T03:57:01.547Z,18.84
2017-06-15T03:57:27.653Z,18.89
2017-06-15T03:57:53.748Z,18.84
2017-06-15T03:58:19.851Z,18.84
2017-06-15T03:58:45.953Z,18.83
2017-06-15T03:59:12.073Z,18.88
2017-06-15T03:59:38.189Z,18.9
2017-06-15T04:00:04.346Z,19.02
2017-06-15T04:00:30.502Z,19.07
2017-06-15T04:00:56.627Z,18.98
2017-06-15T04:01:22.723Z,18.99
2017-06-15T04:01:48.816Z,18.99
2017-06-15T04:02:14.949Z,19
2017-06-15T04:02:41.047Z,19.02
2017-06-15T04:03:07.161Z,18.99
2017-06-15T04:03:33.269Z,19
2017-06-15T04:03:59.396Z,18.96
2017-06-15T04:04:25.486Z,19
2017-06-15T04:04:51.590Z,19
2017-06-15T04:05:17.745Z,19
2017-06-15T04:05:43.833Z,18.96
2017-06-15T04:06:09.932Z,19
2017-06-15T04:06:36.027Z,18.99
2017-06-15T04:07:02.162Z,19
2017-06-15T04:07:28.260Z,18.99
2017-06-15T04:07:54.351Z,18.99
2017-06-15T04:08:20.479Z,18.9
2017-06-15T04:08:46.586Z,18.84
2017-06-15T04:09:12.673Z,18.89
2017-06-15T04:09:38.773Z,18.84
2017-06-15T04:10:04.878Z,18.84
2017-06-15T04:10:30.970Z,18.84
2017-06-15T04:10:57.091Z,18.99
2017-06-15T04:11:23.197Z,18.9
2017-06-15T04:11:49.291Z,18.99
2017-06-15T04:12:15.397Z,18.99
2017-06-15T04:12:41.509Z,18.89
2017-06-15T04:13:07.610Z,18.9
2017-06-15T04:13:33.714Z,18.98
2017-06-15T04:13:59.805Z,19.02
2017-06-15T04:14:25.900Z,19.04
2017-06-15T04:14:52.035Z,19.07
2017-06-15T04:15:18.130Z,19.02
2017-06-15T04:15:44.220Z,19.04
2017-06-15T04:16:10.356Z,19.04
2017-06-15T04:16:36.483Z,19.07
2017-06-15T04:17:02.572Z,19.07
2017-06-15T04:17:28.679Z,19.08
2017-06-15T04:17:54.800Z,19.11
2017-06-15T04:18:20.932Z,19.09
2017-06-15T04:18:47.053Z,19.11
2017-06-15T04:19:13.192Z,19.08
2017-06-15T04:19:39.301Z,19.04
2017-06-15T04:20:05.398Z,19.04
2017-06-15T04:20:31.491Z,19.09
2017-06-15T04:20:57.597Z,19.02
2017-06-15T04:21:23.696Z,19
2017-06-15T04:21:49.787Z,19
2017-06-15T04:22:15.890Z,19.08
2017-06-15T04:22:41.997Z,19.07
2017-06-15T04:23:08.090Z,19.11
2017-06-15T04:23:34.212Z,19.15
2017-06-15T04:24:00.327Z,19.18
2017-06-15T04:24:26.432Z,19.24
2017-06-15T04:24:52.532Z,19.22
2017-06-15T04:25:18.648Z,19.14
2017-06-15T04:25:44.751Z,19.19
2017-06-15T04:26:10.856Z,19.26
2017-06-15T04:26:36.942Z,19.14
2017-06-15T04:27:03.041Z,19.19
2017-06-15T04:27:29.176Z,19.22
2017-06-15T04:27:55.268Z,19.24
2017-06-15T04:28:21.400Z,19.24
2017-06-15T04:28:47.521Z,19.27
2017-06-15T04:29:13.625Z,19.14
2017-06-15T04:29:39.746Z,19.21
2017-06-15T04:30:05.836Z,19.27
2017-06-15T04:30:31.961Z,19.26
2017-06-15T04:30:58.095Z,19.29
2017-06-15T04:31:24.210Z,19.24
2017-06-15T04:31:50.332Z,19.22
2017-06-15T04:32:16.438Z,19.29
2017-06-15T04:32:42.530Z,19.36
2017-06-15T04:33:08.644Z,19.31
2017-06-15T04:33:34.753Z,19.29
2017-06-15T04:34:00.850Z,19.36
2017-06-15T04:34:26.942Z,19.34
2017-06-15T04:34:53.075Z,19.39
2017-06-15T04:35:19.175Z,19.52
2017-06-15T04:35:45.267Z,19.37
2017-06-15T04:36:11.426Z,19.34
2017-06-15T04:36:37.585Z,19.36
2017-06-15T04:37:03.673Z,19.39
2017-06-15T04:37:29.773Z,19.47
2017-06-15T04:37:55.908Z,19.49
2017-06-15T04:38:22.000Z,19.49
2017-06-15T04:38:48.096Z,19.55
2017-06-15T04:39:14.201Z,19.62
2017-06-15T04:39:40.296Z,19.59
2017-06-15T04:40:06.403Z,19.67
2017-06-15T04:40:32.490Z,19.76
2017-06-15T04:40:58.616Z,19.89
2017-06-15T04:41:24.724Z,20.09
2017-06-15T04:41:50.815Z,20.25
2017-06-15T04:42:16.912Z,20.41
2017-06-15T04:42:43.019Z,20.62
2017-06-15T04:43:09.137Z,20.72
2017-06-15T04:43:35.225Z,20.96
2017-06-15T04:44:01.365Z,21.2
2017-06-15T04:44:27.461Z,21.39
2017-06-15T04:44:53.579Z,21.62
2017-06-15T04:45:19.686Z,21.67
2017-06-15T04:45:45.785Z,21.82
2017-06-15T04:46:11.918Z,21.98
2017-06-15T04:46:38.013Z,22.15
2017-06-15T04:47:04.111Z,22.33
2017-06-15T04:47:30.257Z,22.43
2017-06-15T04:47:56.351Z,22.55
2017-06-15T04:48:22.464Z,22.69
2017-06-15T04:48:48.574Z,22.73
2017-06-15T04:49:14.675Z,22.85
2017-06-15T04:49:40.769Z,23.06
2017-06-15T04:50:06.872Z,23.15
2017-06-15T04:50:32.980Z,23.32
2017-06-15T04:50:59.073Z,23.41
2017-06-15T04:51:25.170Z,23.58
2017-06-15T04:51:51.284Z,23.68
2017-06-15T04:52:17.394Z,23.83
2017-06-15T04:52:43.523Z,24.11
2017-06-15T04:53:09.614Z,24.2
2017-06-15T04:53:35.722Z,24.26
2017-06-15T04:54:01.828Z,24.33
2017-06-15T04:54:27.917Z,24.38
2017-06-15T04:54:54.017Z,24.51
2017-06-15T04:55:20.124Z,24.55
2017-06-15T04:55:46.217Z,24.47
2017-06-15T04:56:12.315Z,24.47
2017-06-15T04:56:38.415Z,24.7
2017-06-15T04:57:04.544Z,24.65
2017-06-15T04:57:30.655Z,24.85
2017-06-15T04:57:56.743Z,25.01
2017-06-15T04:58:22.844Z,25.16
2017-06-15T04:58:48.980Z,25.22
2017-06-15T04:59:15.074Z,25.17
2017-06-15T04:59:41.173Z,25.22
2017-06-15T05:00:07.282Z,25.25
2017-06-15T05:00:33.376Z,25.28
2017-06-15T05:00:59.495Z,25.21
2017-06-15T05:01:25.604Z,25.25
2017-06-15T05:01:51.705Z,25.4
2017-06-15T05:02:17.809Z,25.43
2017-06-15T05:02:43.902Z,25.58
2017-06-15T05:03:10.001Z,25.58
2017-06-15T05:03:36.107Z,25.46
2017-06-15T05:04:02.203Z,25.31
2017-06-15T05:04:28.320Z,25.26
2017-06-15T05:04:54.434Z,25.14
2017-06-15T05:05:20.532Z,25.29
2017-06-15T05:05:46.625Z,25.44
2017-06-15T05:06:12.731Z,25.36
2017-06-15T05:06:38.834Z,25.51
2017-06-15T05:07:04.928Z,25.54
2017-06-15T05:07:31.033Z,25.59
2017-06-15T05:07:57.153Z,25.77
2017-06-15T05:08:23.269Z,25.91
2017-06-15T05:08:49.493Z,26.05
2017-06-15T05:09:15.587Z,26.03
2017-06-15T05:09:41.719Z,26.13
2017-06-15T05:10:07.820Z,26.31
2017-06-15T05:10:33.913Z,26.41
2017-06-15T05:11:00.019Z,26.45
2017-06-15T05:11:26.155Z,26.52
2017-06-15T05:11:52.246Z,26.44
2017-06-15T05:12:18.371Z,26.56
2017-06-15T05:12:44.478Z,26.6
2017-06-15T05:13:10.602Z,26.75
2017-06-15T05:13:36.706Z,26.55
2017-06-15T05:14:02.798Z,26.59
2017-06-15T05:14:28.903Z,26.58
2017-06-15T05:14:55.040Z,26.68
2017-06-15T05:15:21.129Z,26.74
2017-06-15T05:15:47.231Z,26.75
2017-06-15T05:16:13.339Z,26.63
2017-06-15T05:16:39.434Z,26.62
2017-06-15T05:17:05.559Z,26.52
2017-06-15T05:17:31.668Z,26.47
2017-06-15T05:17:57.788Z,26.38
2017-06-15T05:18:23.906Z,26.38
2017-06-15T05:18:50.017Z,26.25
2017-06-15T05:19:16.143Z,26.22
2017-06-15T05:19:42.262Z,26.29
2017-06-15T05:20:08.372Z,26.19
2017-06-15T05:20:34.474Z,26.19
2017-06-15T05:21:00.567Z,26.19
2017-06-15T05:21:26.672Z,25.85
2017-06-15T05:21:52.807Z,25.8
2017-06-15T05:22:18.897Z,25.73
2017-06-15T05:22:45.028Z,25.78
2017-06-15T05:23:11.134Z,25.77
2017-06-15T05:23:37.251Z,25.63
2017-06-15T05:24:03.373Z,25.6
2017-06-15T05:24:29.496Z,25.59
2017-06-15T05:24:55.601Z,25.33
2017-06-15T05:25:21.710Z,25.23
2017-06-15T05:25:47.799Z,24.96
2017-06-15T05:26:13.925Z,24.95
2017-06-15T05:26:40.061Z,24.89
2017-06-15T05:27:06.153Z,24.84
2017-06-15T05:27:32.274Z,24.58
2017-06-15T05:27:58.383Z,24.58
2017-06-15T05:28:24.508Z,24.36
2017-06-15T05:28:50.601Z,24.43
2017-06-15T05:29:16.710Z,24.38
2017-06-15T05:29:42.809Z,24.39
2017-06-15T05:30:08.914Z,24.3
2017-06-15T05:30:35.007Z,24.26
2017-06-15T05:31:01.107Z,24.16
2017-06-15T05:31:27.217Z,24.06
2017-06-15T05:31:53.310Z,23.96
2017-06-15T05:32:19.402Z,23.81
2017-06-15T05:32:45.513Z,23.77
2017-06-15T05:33:11.613Z,23.78
2017-06-15T05:33:37.731Z,23.8
2017-06-15T05:34:03.841Z,23.74
2017-06-15T05:34:29.971Z,23.66
2017-06-15T05:34:56.087Z,23.4
2017-06-15T05:35:22.192Z,23.24
2017-06-15T05:35:48.309Z,23.09
2017-06-15T05:36:14.420Z,23.09
2017-06-15T05:36:40.520Z,23.1
2017-06-15T05:37:06.611Z,23.17
2017-06-15T05:37:32.718Z,23.2
2017-06-15T05:37:58.821Z,23.17